sensor_id;sensor_type;location;lat;lon;timestamp;pressure;altitude;pressure_sealevel;temperature;humidity
76448;BME280;65284;51.040;13.722;2023-11-18T00:01:57;100450.34;;;3.96;93.91
76448;BME280;65284;51.040;13.722;2023-11-18T00:04:24;100458.16;;;3.98;93.82
76448;BME280;65284;51.040;13.722;2023-11-18T00:06:51;100458.97;;;3.98;93.96
76448;BME280;65284;51.040;13.722;2023-11-18T00:09:18;100466.34;;;3.93;93.74
76448;BME280;65284;51.040;13.722;2023-11-18T00:11:46;100465.50;;;3.93;94.15
76448;BME280;65284;51.040;13.722;2023-11-18T00:14:12;100466.56;;;3.90;94.16
76448;BME280;65284;51.040;13.722;2023-11-18T00:16:39;100465.09;;;3.86;94.40
76448;BME280;65284;51.040;13.722;2023-11-18T00:19:06;100479.19;;;3.85;94.38
76448;BME280;65284;51.040;13.722;2023-11-18T00:21:32;100490.75;;;3.82;94.46
76448;BME280;65284;51.040;13.722;2023-11-18T00:23:59;100484.88;;;3.79;94.34
76448;BME280;65284;51.040;13.722;2023-11-18T00:26:25;100480.84;;;3.86;93.63
76448;BME280;65284;51.040;13.722;2023-11-18T00:28:52;100494.31;;;3.81;94.23
76448;BME280;65284;51.040;13.722;2023-11-18T00:31:19;100498.72;;;3.81;94.12
76448;BME280;65284;51.040;13.722;2023-11-18T00:33:45;100494.50;;;3.78;93.64
76448;BME280;65284;51.040;13.722;2023-11-18T00:36:12;100501.69;;;3.76;93.61
76448;BME280;65284;51.040;13.722;2023-11-18T00:38:38;100495.59;;;3.76;93.42
76448;BME280;65284;51.040;13.722;2023-11-18T00:41:06;100511.56;;;3.73;93.55
76448;BME280;65284;51.040;13.722;2023-11-18T00:43:33;100489.06;;;3.69;93.56
76448;BME280;65284;51.040;13.722;2023-11-18T00:45:59;100490.22;;;3.64;93.45
76448;BME280;65284;51.040;13.722;2023-11-18T00:48:26;100504.81;;;3.69;93.87
76448;BME280;65284;51.040;13.722;2023-11-18T00:50:52;100502.94;;;3.71;94.30
76448;BME280;65284;51.040;13.722;2023-11-18T00:53:18;100505.78;;;3.68;94.29
76448;BME280;65284;51.040;13.722;2023-11-18T00:55:45;100511.94;;;3.67;94.61
76448;BME280;65284;51.040;13.722;2023-11-18T00:58:11;100505.88;;;3.66;95.22
76448;BME280;65284;51.040;13.722;2023-11-18T01:00:38;100518.91;;;3.68;95.27
76448;BME280;65284;51.040;13.722;2023-11-18T01:03:05;100513.66;;;3.68;95.13
76448;BME280;65284;51.040;13.722;2023-11-18T01:05:31;100518.91;;;3.68;95.46
76448;BME280;65284;51.040;13.722;2023-11-18T01:07:58;100518.78;;;3.69;95.58
76448;BME280;65284;51.040;13.722;2023-11-18T01:10:24;100532.03;;;3.68;95.63
76448;BME280;65284;51.040;13.722;2023-11-18T01:12:51;100521.41;;;3.69;95.55
76448;BME280;65284;51.040;13.722;2023-11-18T01:15:17;100525.19;;;3.65;95.58
76448;BME280;65284;51.040;13.722;2023-11-18T01:17:44;100515.31;;;3.69;95.68
76448;BME280;65284;51.040;13.722;2023-11-18T01:20:11;100519.81;;;3.67;95.45
76448;BME280;65284;51.040;13.722;2023-11-18T01:22:39;100514.56;;;3.67;95.39
76448;BME280;65284;51.040;13.722;2023-11-18T01:25:08;100526.03;;;3.65;95.61
76448;BME280;65284;51.040;13.722;2023-11-18T01:27:35;100535.50;;;3.68;94.96
76448;BME280;65284;51.040;13.722;2023-11-18T01:30:01;100529.63;;;3.64;95.00
76448;BME280;65284;51.040;13.722;2023-11-18T01:32:27;100532.03;;;3.68;94.73
76448;BME280;65284;51.040;13.722;2023-11-18T01:34:56;100530.53;;;3.63;94.88
76448;BME280;65284;51.040;13.722;2023-11-18T01:37:23;100556.09;;;3.61;94.44
76448;BME280;65284;51.040;13.722;2023-11-18T01:39:50;100554.31;;;3.62;95.11
76448;BME280;65284;51.040;13.722;2023-11-18T01:42:17;100540.34;;;3.61;94.69
76448;BME280;65284;51.040;13.722;2023-11-18T01:44:44;100547.47;;;3.59;94.79
76448;BME280;65284;51.040;13.722;2023-11-18T01:47:10;100541.38;;;3.59;95.15
76448;BME280;65284;51.040;13.722;2023-11-18T01:49:40;100538.84;;;3.57;94.95
76448;BME280;65284;51.040;13.722;2023-11-18T01:52:07;100547.47;;;3.59;94.56
76448;BME280;65284;51.040;13.722;2023-11-18T01:54:36;100543.69;;;3.63;94.68
76448;BME280;65284;51.040;13.722;2023-11-18T01:57:04;100556.81;;;3.63;94.27
76448;BME280;65284;51.040;13.722;2023-11-18T01:59:33;100553.88;;;3.55;94.58
76448;BME280;65284;51.040;13.722;2023-11-18T02:02:00;100575.81;;;3.54;94.88
76448;BME280;65284;51.040;13.722;2023-11-18T02:04:28;100544.84;;;3.59;94.82
76448;BME280;65284;51.040;13.722;2023-11-18T02:06:56;100557.97;;;3.59;95.06
76448;BME280;65284;51.040;13.722;2023-11-18T02:09:24;100559.84;;;3.57;94.61
76448;BME280;65284;51.040;13.722;2023-11-18T02:14:39;100570.16;;;3.60;94.63
76448;BME280;65284;51.040;13.722;2023-11-18T02:17:07;100559.84;;;3.57;94.72
76448;BME280;65284;51.040;13.722;2023-11-18T02:19:36;100564.19;;;3.58;94.67
76448;BME280;65284;51.040;13.722;2023-11-18T02:22:06;100565.09;;;3.57;94.70
76448;BME280;65284;51.040;13.722;2023-11-18T02:24:33;100557.34;;;3.56;94.89
76448;BME280;65284;51.040;13.722;2023-11-18T02:27:04;100565.75;;;3.61;94.66
76448;BME280;65284;51.040;13.722;2023-11-18T02:29:40;100563.22;;;3.59;94.56
76448;BME280;65284;51.040;13.722;2023-11-18T02:32:34;100579.19;;;3.56;94.91
76448;BME280;65284;51.040;13.722;2023-11-18T02:35:15;100566.81;;;3.58;95.08
76448;BME280;65284;51.040;13.722;2023-11-18T02:37:45;100567.00;;;3.55;95.35
76448;BME280;65284;51.040;13.722;2023-11-18T02:40:19;100573.09;;;3.56;94.67
76448;BME280;65284;51.040;13.722;2023-11-18T02:42:45;100577.41;;;3.57;94.77
76448;BME280;65284;51.040;13.722;2023-11-18T02:45:14;100571.84;;;3.61;94.70
76448;BME280;65284;51.040;13.722;2023-11-18T02:47:44;100563.22;;;3.59;94.90
76448;BME280;65284;51.040;13.722;2023-11-18T02:50:11;100571.00;;;3.61;94.88
76448;BME280;65284;51.040;13.722;2023-11-18T02:52:38;100565.31;;;3.54;95.02
76448;BME280;65284;51.040;13.722;2023-11-18T02:55:05;100563.63;;;3.53;94.60
76448;BME280;65284;51.040;13.722;2023-11-18T02:57:35;100563.84;;;3.50;95.32
76448;BME280;65284;51.040;13.722;2023-11-18T03:00:06;100576.00;;;3.51;95.33
76448;BME280;65284;51.040;13.722;2023-11-18T03:02:44;100578.13;;;3.46;95.58
76448;BME280;65284;51.040;13.722;2023-11-18T03:05:12;100572.75;;;3.48;95.67
76448;BME280;65284;51.040;13.722;2023-11-18T03:07:40;100587.34;;;3.52;95.56
76448;BME280;65284;51.040;13.722;2023-11-18T03:10:07;100588.22;;;3.52;95.62
76448;BME280;65284;51.040;13.722;2023-11-18T03:12:50;100580.03;;;3.57;95.38
76448;BME280;65284;51.040;13.722;2023-11-18T03:15:17;100578.34;;;3.56;95.63
76448;BME280;65284;51.040;13.722;2023-11-18T03:17:47;100590.31;;;3.47;96.10
76448;BME280;65284;51.040;13.722;2023-11-18T03:20:16;100576.63;;;3.42;96.44
76448;BME280;65284;51.040;13.722;2023-11-18T03:22:44;100583.47;;;3.45;96.07
76448;BME280;65284;51.040;13.722;2023-11-18T03:25:14;100583.56;;;3.43;96.42
76448;BME280;65284;51.040;13.722;2023-11-18T03:27:41;100575.78;;;3.41;96.29
76448;BME280;65284;51.040;13.722;2023-11-18T03:30:08;100583.75;;;3.40;96.44
76448;BME280;65284;51.040;13.722;2023-11-18T03:32:35;100582.47;;;3.33;97.40
76448;BME280;65284;51.040;13.722;2023-11-18T03:35:03;100588.13;;;3.27;97.32
76448;BME280;65284;51.040;13.722;2023-11-18T03:37:35;100584.75;;;3.25;98.01
76448;BME280;65284;51.040;13.722;2023-11-18T03:40:09;100584.75;;;3.25;97.73
76448;BME280;65284;51.040;13.722;2023-11-18T03:42:36;100589.16;;;3.24;98.22
76448;BME280;65284;51.040;13.722;2023-11-18T03:45:04;100588.13;;;3.27;97.84
76448;BME280;65284;51.040;13.722;2023-11-18T03:47:30;100596.75;;;3.29;97.53
76448;BME280;65284;51.040;13.722;2023-11-18T03:49:57;100597.81;;;3.26;97.78
76448;BME280;65284;51.040;13.722;2023-11-18T03:52:24;100595.25;;;3.25;97.74
76448;BME280;65284;51.040;13.722;2023-11-18T03:54:50;100600.72;;;3.22;97.89
76448;BME280;65284;51.040;13.722;2023-11-18T03:57:16;100596.28;;;3.22;98.11
76448;BME280;65284;51.040;13.722;2023-11-18T03:59:43;100591.16;;;3.21;97.97
76448;BME280;65284;51.040;13.722;2023-11-18T04:02:09;100590.41;;;3.18;98.39
76448;BME280;65284;51.040;13.722;2023-11-18T04:04:37;100602.78;;;3.16;98.24
76448;BME280;65284;51.040;13.722;2023-11-18T04:07:04;100595.47;;;3.22;97.97
76448;BME280;65284;51.040;13.722;2023-11-18T04:09:30;100598.91;;;3.22;98.15
76448;BME280;65284;51.040;13.722;2023-11-18T04:11:57;100598.09;;;3.22;97.97
76448;BME280;65284;51.040;13.722;2023-11-18T04:14:24;100597.25;;;3.21;98.01
76448;BME280;65284;51.040;13.722;2023-11-18T04:16:52;100606.91;;;3.21;98.11
76448;BME280;65284;51.040;13.722;2023-11-18T04:19:18;100611.41;;;3.18;98.10
76448;BME280;65284;51.040;13.722;2023-11-18T04:21:46;100614.88;;;3.19;98.15
76448;BME280;65284;51.040;13.722;2023-11-18T04:24:15;100613.00;;;3.21;98.24
76448;BME280;65284;51.040;13.722;2023-11-18T04:26:42;100607.47;;;3.26;97.80
76448;BME280;65284;51.040;13.722;2023-11-18T04:29:08;100613.63;;;3.25;97.62
76448;BME280;65284;51.040;13.722;2023-11-18T04:31:35;100607.47;;;3.26;97.60
76448;BME280;65284;51.040;13.722;2023-11-18T04:34:03;100615.13;;;3.29;97.51
76448;BME280;65284;51.040;13.722;2023-11-18T04:36:32;100615.03;;;3.30;97.55
76448;BME280;65284;51.040;13.722;2023-11-18T04:38:59;100610.41;;;3.34;97.57
76448;BME280;65284;51.040;13.722;2023-11-18T04:41:25;100612.84;;;3.37;97.39
76448;BME280;65284;51.040;13.722;2023-11-18T04:43:52;100609.56;;;3.33;97.49
76448;BME280;65284;51.040;13.722;2023-11-18T04:46:19;100615.25;;;3.40;97.30
76448;BME280;65284;51.040;13.722;2023-11-18T04:48:46;100611.78;;;3.39;97.39
76448;BME280;65284;51.040;13.722;2023-11-18T04:51:12;100623.13;;;3.40;97.82
76448;BME280;65284;51.040;13.722;2023-11-18T04:53:39;100620.44;;;3.41;97.52
76448;BME280;65284;51.040;13.722;2023-11-18T04:56:06;100622.00;;;3.44;97.58
76448;BME280;65284;51.040;13.722;2023-11-18T04:58:39;100632.31;;;3.47;97.70
76448;BME280;65284;51.040;13.722;2023-11-18T05:01:06;100629.34;;;3.39;97.87
76448;BME280;65284;51.040;13.722;2023-11-18T05:03:33;100617.16;;;3.38;97.80
76448;BME280;65284;51.040;13.722;2023-11-18T05:05:59;100624.09;;;3.39;98.11
76448;BME280;65284;51.040;13.722;2023-11-18T05:08:26;100629.34;;;3.39;98.37
76448;BME280;65284;51.040;13.722;2023-11-18T05:10:53;100631.97;;;3.39;98.15
76448;BME280;65284;51.040;13.722;2023-11-18T05:13:20;100622.22;;;3.41;97.88
76448;BME280;65284;51.040;13.722;2023-11-18T05:15:48;100629.34;;;3.39;97.70
76448;BME280;65284;51.040;13.722;2023-11-18T05:18:16;100630.72;;;3.45;98.08
76448;BME280;65284;51.040;13.722;2023-11-18T05:20:43;100627.47;;;3.41;97.80
76448;BME280;65284;51.040;13.722;2023-11-18T05:23:11;100641.16;;;3.46;97.74
76448;BME280;65284;51.040;13.722;2023-11-18T05:25:42;100643.03;;;3.44;97.82
76448;BME280;65284;51.040;13.722;2023-11-18T05:28:12;100631.69;;;3.44;97.87
76448;BME280;65284;51.040;13.722;2023-11-18T05:30:41;100644.88;;;3.42;98.45
76448;BME280;65284;51.040;13.722;2023-11-18T05:33:09;100635.53;;;3.38;98.26
76448;BME280;65284;51.040;13.722;2023-11-18T05:35:41;100643.31;;;3.39;98.18
76448;BME280;65284;51.040;13.722;2023-11-18T05:38:16;100639.63;;;3.42;97.94
76448;BME280;65284;51.040;13.722;2023-11-18T05:40:45;100634.38;;;3.42;97.95
76448;BME280;65284;51.040;13.722;2023-11-18T05:43:27;100643.94;;;3.43;97.83
76448;BME280;65284;51.040;13.722;2023-11-18T05:45:56;100639.63;;;3.42;98.27
76448;BME280;65284;51.040;13.722;2023-11-18T05:48:43;100641.50;;;3.40;98.23
76448;BME280;65284;51.040;13.722;2023-11-18T05:51:11;100646.56;;;3.43;98.14
76448;BME280;65284;51.040;13.722;2023-11-18T05:53:42;100639.56;;;3.44;98.17
76448;BME280;65284;51.040;13.722;2023-11-18T05:56:12;100646.19;;;3.49;98.19
76448;BME280;65284;51.040;13.722;2023-11-18T05:58:38;100648.25;;;3.44;98.83
76448;BME280;65284;51.040;13.722;2023-11-18T06:01:06;100643.94;;;3.43;99.02
76448;BME280;65284;51.040;13.722;2023-11-18T06:03:35;100645.09;;;3.39;99.80
76448;BME280;65284;51.040;13.722;2023-11-18T06:06:06;100643.22;;;3.41;99.66
76448;BME280;65284;51.040;13.722;2023-11-18T06:08:34;100641.50;;;3.40;100.00
76448;BME280;65284;51.040;13.722;2023-11-18T06:11:01;100645.28;;;3.36;100.00
76448;BME280;65284;51.040;13.722;2023-11-18T06:13:43;100645.09;;;3.39;100.00
76448;BME280;65284;51.040;13.722;2023-11-18T06:18:42;100655.03;;;3.34;100.00
76448;BME280;65284;51.040;13.722;2023-11-18T06:21:14;100661.88;;;3.36;100.00
76448;BME280;65284;51.040;13.722;2023-11-18T06:23:41;100663.59;;;3.37;100.00
76448;BME280;65284;51.040;13.722;2023-11-18T06:26:08;100657.38;;;3.38;100.00
76448;BME280;65284;51.040;13.722;2023-11-18T06:28:42;100678.47;;;3.37;100.00
76448;BME280;65284;51.040;13.722;2023-11-18T06:31:10;100675.66;;;3.40;100.00
76448;BME280;65284;51.040;13.722;2023-11-18T06:33:39;100673.22;;;3.37;100.00
76448;BME280;65284;51.040;13.722;2023-11-18T06:38:46;100671.47;;;3.37;100.00
76448;BME280;65284;51.040;13.722;2023-11-18T06:41:13;100685.81;;;3.32;100.00
76448;BME280;65284;51.040;13.722;2023-11-18T06:43:42;100679.72;;;3.31;100.00
76448;BME280;65284;51.040;13.722;2023-11-18T06:46:19;100672.13;;;3.27;100.00
76448;BME280;65284;51.040;13.722;2023-11-18T06:48:49;100691.66;;;3.23;100.00
76448;BME280;65284;51.040;13.722;2023-11-18T06:51:16;100678.63;;;3.21;100.00
76448;BME280;65284;51.040;13.722;2023-11-18T06:53:43;100684.69;;;3.22;100.00
76448;BME280;65284;51.040;13.722;2023-11-18T06:56:10;100685.72;;;3.19;100.00
76448;BME280;65284;51.040;13.722;2023-11-18T06:58:39;100681.16;;;3.23;100.00
76448;BME280;65284;51.040;13.722;2023-11-18T07:01:07;100679.06;;;3.28;100.00
76448;BME280;65284;51.040;13.722;2023-11-18T07:03:34;100680.97;;;3.26;100.00
76448;BME280;65284;51.040;13.722;2023-11-18T07:06:00;100684.50;;;3.25;100.00
76448;BME280;65284;51.040;13.722;2023-11-18T07:08:27;100682.00;;;3.23;100.00
76448;BME280;65284;51.040;13.722;2023-11-18T07:10:53;100675.78;;;3.24;100.00
76448;BME280;65284;51.040;13.722;2023-11-18T07:13:20;100688.06;;;3.24;100.00
76448;BME280;65284;51.040;13.722;2023-11-18T07:15:52;100686.00;;;3.29;100.00
76448;BME280;65284;51.040;13.722;2023-11-18T07:18:20;100692.19;;;3.28;100.00
76448;BME280;65284;51.040;13.722;2023-11-18T07:20:48;100699.88;;;3.31;100.00
76448;BME280;65284;51.040;13.722;2023-11-18T07:23:20;100698.00;;;3.33;100.00
76448;BME280;65284;51.040;13.722;2023-11-18T07:25:47;100712.25;;;3.29;100.00
76448;BME280;65284;51.040;13.722;2023-11-18T07:28:13;100697.34;;;3.29;100.00
76448;BME280;65284;51.040;13.722;2023-11-18T07:30:43;100701.38;;;3.35;100.00
76448;BME280;65284;51.040;13.722;2023-11-18T07:33:14;100710.38;;;3.31;100.00
76448;BME280;65284;51.040;13.722;2023-11-18T07:35:42;100699.22;;;3.27;100.00
76448;BME280;65284;51.040;13.722;2023-11-18T07:38:09;100705.78;;;3.34;100.00
76448;BME280;65284;51.040;13.722;2023-11-18T07:40:37;100698.19;;;3.30;100.00
76448;BME280;65284;51.040;13.722;2023-11-18T07:43:08;100703.63;;;3.27;100.00
76448;BME280;65284;51.040;13.722;2023-11-18T07:45:36;100699.78;;;3.32;100.00
76448;BME280;65284;51.040;13.722;2023-11-18T07:48:07;100704.06;;;3.33;100.00
76448;BME280;65284;51.040;13.722;2023-11-18T07:50:40;100712.06;;;3.32;100.00
76448;BME280;65284;51.040;13.722;2023-11-18T07:53:07;100718.81;;;3.36;100.00
76448;BME280;65284;51.040;13.722;2023-11-18T07:55:34;100720.66;;;3.34;100.00
76448;BME280;65284;51.040;13.722;2023-11-18T07:58:01;100721.78;;;3.44;100.00
76448;BME280;65284;51.040;13.722;2023-11-18T08:00:30;100718.59;;;3.39;100.00
76448;BME280;65284;51.040;13.722;2023-11-18T08:02:57;100722.25;;;3.36;100.00
76448;BME280;65284;51.040;13.722;2023-11-18T08:05:26;100732.69;;;3.38;100.00
76448;BME280;65284;51.040;13.722;2023-11-18T08:07:54;100728.06;;;3.41;100.00
76448;BME280;65284;51.040;13.722;2023-11-18T08:10:21;100731.72;;;3.39;100.00
76448;BME280;65284;51.040;13.722;2023-11-18T08:12:48;100742.34;;;3.37;100.00
76448;BME280;65284;51.040;13.722;2023-11-18T08:15:15;100745.63;;;3.41;100.00
76448;BME280;65284;51.040;13.722;2023-11-18T08:17:41;100736.50;;;3.47;100.00
76448;BME280;65284;51.040;13.722;2023-11-18T08:20:08;100741.56;;;3.50;100.00
76448;BME280;65284;51.040;13.722;2023-11-18T08:22:41;100742.59;;;3.47;100.00
76448;BME280;65284;51.040;13.722;2023-11-18T08:25:12;100740.72;;;3.49;100.00
76448;BME280;65284;51.040;13.722;2023-11-18T08:27:40;100741.66;;;3.48;100.00
76448;BME280;65284;51.040;13.722;2023-11-18T08:30:08;100748.59;;;3.49;100.00
76448;BME280;65284;51.040;13.722;2023-11-18T08:32:38;100750.72;;;3.57;100.00
76448;BME280;65284;51.040;13.722;2023-11-18T08:35:06;100760.75;;;3.64;100.00
76448;BME280;65284;51.040;13.722;2023-11-18T08:37:34;100771.25;;;3.64;100.00
76448;BME280;65284;51.040;13.722;2023-11-18T08:40:04;100767.03;;;3.62;100.00
76448;BME280;65284;51.040;13.722;2023-11-18T08:42:49;100771.63;;;3.73;99.60
76448;BME280;65284;51.040;13.722;2023-11-18T08:45:18;100766.38;;;3.73;99.89
76448;BME280;65284;51.040;13.722;2023-11-18T08:47:45;100777.81;;;3.72;100.00
76448;BME280;65284;51.040;13.722;2023-11-18T08:50:14;100767.28;;;3.72;99.80
76448;BME280;65284;51.040;13.722;2023-11-18T08:52:41;100785.59;;;3.73;100.00
76448;BME280;65284;51.040;13.722;2023-11-18T08:55:10;100770.28;;;3.80;100.00
76448;BME280;65284;51.040;13.722;2023-11-18T08:57:45;100774.06;;;3.76;100.00
76448;BME280;65284;51.040;13.722;2023-11-18T09:00:38;100779.84;;;3.81;100.00
76448;BME280;65284;51.040;13.722;2023-11-18T09:03:11;100773.66;;;3.82;100.00
76448;BME280;65284;51.040;13.722;2023-11-18T09:05:45;100771.34;;;3.90;100.00
76448;BME280;65284;51.040;13.722;2023-11-18T09:08:28;100770.63;;;3.88;100.00
76448;BME280;65284;51.040;13.722;2023-11-18T09:10:58;100773.06;;;3.91;100.00
76448;BME280;65284;51.040;13.722;2023-11-18T09:13:26;100781.47;;;3.96;100.00
76448;BME280;65284;51.040;13.722;2023-11-18T09:15:59;100783.19;;;3.97;100.00
76448;BME280;65284;51.040;13.722;2023-11-18T09:18:36;100784.44;;;4.04;100.00
76448;BME280;65284;51.040;13.722;2023-11-18T09:21:07;100779.75;;;4.09;100.00
76448;BME280;65284;51.040;13.722;2023-11-18T09:23:41;100796.47;;;4.08;99.42
76448;BME280;65284;51.040;13.722;2023-11-18T09:26:08;100794.16;;;4.17;98.40
76448;BME280;65284;51.040;13.722;2023-11-18T09:28:37;100781.97;;;4.16;98.22
76448;BME280;65284;51.040;13.722;2023-11-18T09:31:05;100795.66;;;4.21;97.86
76448;BME280;65284;51.040;13.722;2023-11-18T09:33:33;100786.63;;;4.25;97.02
76448;BME280;65284;51.040;13.722;2023-11-18T09:36:01;100784.53;;;4.30;96.63
76448;BME280;65284;51.040;13.722;2023-11-18T09:38:30;100790.00;;;4.27;95.85
76448;BME280;65284;51.040;13.722;2023-11-18T09:40:59;100784.34;;;4.33;95.51
76448;BME280;65284;51.040;13.722;2023-11-18T09:43:35;100782.66;;;4.32;95.59
76448;BME280;65284;51.040;13.722;2023-11-18T09:46:09;100774.44;;;4.37;95.01
76448;BME280;65284;51.040;13.722;2023-11-18T09:48:44;100794.16;;;4.44;94.32
76448;BME280;65284;51.040;13.722;2023-11-18T09:51:23;100771.31;;;4.44;94.65
76448;BME280;65284;51.040;13.722;2023-11-18T09:53:52;100771.75;;;4.51;94.11
76448;BME280;65284;51.040;13.722;2023-11-18T09:56:30;100769.53;;;4.57;94.21
76448;BME280;65284;51.040;13.722;2023-11-18T09:59:10;100774.06;;;4.68;92.81
76448;BME280;65284;51.040;13.722;2023-11-18T10:01:43;100778.28;;;4.71;92.73
76448;BME280;65284;51.040;13.722;2023-11-18T10:04:14;100778.72;;;4.77;92.61
76448;BME280;65284;51.040;13.722;2023-11-18T10:06:46;100785.56;;;4.80;92.01
76448;BME280;65284;51.040;13.722;2023-11-18T10:09:13;100784.28;;;4.98;91.78
76448;BME280;65284;51.040;13.722;2023-11-18T10:11:46;100778.28;;;4.96;90.70
76448;BME280;65284;51.040;13.722;2023-11-18T10:14:14;100767.97;;;4.93;89.73
76448;BME280;65284;51.040;13.722;2023-11-18T10:16:45;100762.28;;;4.99;90.28
76448;BME280;65284;51.040;13.722;2023-11-18T10:19:13;100767.22;;;5.04;89.21
76448;BME280;65284;51.040;13.722;2023-11-18T10:21:40;100765.25;;;4.95;89.13
76448;BME280;65284;51.040;13.722;2023-11-18T10:24:08;100762.91;;;4.90;88.61
76448;BME280;65284;51.040;13.722;2023-11-18T10:26:42;100782.28;;;4.89;87.79
76448;BME280;65284;51.040;13.722;2023-11-18T10:29:11;100778.06;;;4.87;87.11
76448;BME280;65284;51.040;13.722;2023-11-18T10:31:39;100775.75;;;4.82;86.08
76448;BME280;65284;51.040;13.722;2023-11-18T10:34:13;100772.06;;;4.85;84.03
76448;BME280;65284;51.040;13.722;2023-11-18T10:36:58;100781.25;;;4.92;84.82
76448;BME280;65284;51.040;13.722;2023-11-18T10:39:28;100783.75;;;4.93;84.70
76448;BME280;65284;51.040;13.722;2023-11-18T10:42:01;100781.47;;;4.89;84.83
76448;BME280;65284;51.040;13.722;2023-11-18T10:44:28;100765.13;;;4.96;82.67
76448;BME280;65284;51.040;13.722;2023-11-18T10:46:56;100778.28;;;4.96;80.62
76448;BME280;65284;51.040;13.722;2023-11-18T10:49:29;100773.66;;;5.00;80.30
76448;BME280;65284;51.040;13.722;2023-11-18T10:52:04;100775.88;;;5.06;80.29
76448;BME280;65284;51.040;13.722;2023-11-18T10:54:34;100770.69;;;5.05;80.40
76448;BME280;65284;51.040;13.722;2023-11-18T10:57:01;100764.16;;;5.10;80.05
76448;BME280;65284;51.040;13.722;2023-11-18T10:59:34;100767.53;;;5.12;79.21
76448;BME280;65284;51.040;13.722;2023-11-18T11:02:00;100761.44;;;5.12;78.81
76448;BME280;65284;51.040;13.722;2023-11-18T11:04:42;100756.47;;;5.20;76.88
76448;BME280;65284;51.040;13.722;2023-11-18T11:07:09;100760.88;;;5.19;72.70
76448;BME280;65284;51.040;13.722;2023-11-18T11:09:38;100761.84;;;5.18;71.96
76448;BME280;65284;51.040;13.722;2023-11-18T11:12:10;100766.78;;;5.23;71.44
76448;BME280;65284;51.040;13.722;2023-11-18T11:14:52;100763.84;;;5.28;72.28
76448;BME280;65284;51.040;13.722;2023-11-18T11:17:24;100768.75;;;5.32;71.47
76448;BME280;65284;51.040;13.722;2023-11-18T11:20:04;100764.34;;;5.33;70.62
76448;BME280;65284;51.040;13.722;2023-11-18T11:22:44;100767.59;;;5.36;69.99
76448;BME280;65284;51.040;13.722;2023-11-18T11:28:16;100773.19;;;5.44;69.16
76448;BME280;65284;51.040;13.722;2023-11-18T11:30:50;100778.94;;;5.50;68.98
76448;BME280;65284;51.040;13.722;2023-11-18T11:33:40;100776.09;;;5.53;68.46
76448;BME280;65284;51.040;13.722;2023-11-18T11:36:12;100770.09;;;5.51;67.00
76448;BME280;65284;51.040;13.722;2023-11-18T11:38:38;100766.00;;;5.46;66.98
76448;BME280;65284;51.040;13.722;2023-11-18T11:41:06;100760.94;;;5.56;66.30
76448;BME280;65284;51.040;13.722;2023-11-18T11:43:35;100763.44;;;5.58;66.27
76448;BME280;65284;51.040;13.722;2023-11-18T11:46:02;100760.94;;;5.56;67.00
76448;BME280;65284;51.040;13.722;2023-11-18T11:48:38;100764.50;;;5.55;66.56
76448;BME280;65284;51.040;13.722;2023-11-18T11:54:16;100768.13;;;5.41;66.94
76448;BME280;65284;51.040;13.722;2023-11-18T11:56:46;100753.25;;;5.53;66.22
76448;BME280;65284;51.040;13.722;2023-11-18T11:59:16;100742.56;;;5.55;66.81
76448;BME280;65284;51.040;13.722;2023-11-18T12:01:43;100747.84;;;5.55;66.86
76448;BME280;65284;51.040;13.722;2023-11-18T12:04:16;100749.97;;;5.50;67.26
76448;BME280;65284;51.040;13.722;2023-11-18T12:06:55;100738.38;;;5.52;68.19
76448;BME280;65284;51.040;13.722;2023-11-18T12:09:37;100736.91;;;5.48;68.31
76448;BME280;65284;51.040;13.722;2023-11-18T12:12:05;100743.25;;;5.45;67.95
76448;BME280;65284;51.040;13.722;2023-11-18T12:14:58;100732.03;;;5.55;67.98
76448;BME280;65284;51.040;13.722;2023-11-18T12:20:40;100735.84;;;5.51;68.02
76448;BME280;65284;51.040;13.722;2023-11-18T12:23:09;100728.41;;;5.44;67.96
76448;BME280;65284;51.040;13.722;2023-11-18T12:25:42;100721.44;;;5.43;67.81
76448;BME280;65284;51.040;13.722;2023-11-18T12:28:10;100719.75;;;5.42;68.30
76448;BME280;65284;51.040;13.722;2023-11-18T12:30:38;100722.38;;;5.42;67.39
76448;BME280;65284;51.040;13.722;2023-11-18T12:33:09;100714.94;;;5.36;66.70
76448;BME280;65284;51.040;13.722;2023-11-18T12:39:01;100710.47;;;5.13;67.33
76448;BME280;65284;51.040;13.722;2023-11-18T12:41:40;100713.63;;;5.18;67.55
76448;BME280;65284;51.040;13.722;2023-11-18T12:44:29;100719.09;;;5.15;68.17
76448;BME280;65284;51.040;13.722;2023-11-18T12:47:00;100712.88;;;5.16;68.16
76448;BME280;65284;51.040;13.722;2023-11-18T12:49:41;100704.75;;;5.19;69.10
76448;BME280;65284;51.040;13.722;2023-11-18T12:52:10;100695.69;;;5.23;68.14
76448;BME280;65284;51.040;13.722;2023-11-18T12:54:37;100691.38;;;5.22;67.72
76448;BME280;65284;51.040;13.722;2023-11-18T12:57:04;100685.44;;;5.31;67.97
76448;BME280;65284;51.040;13.722;2023-11-18T12:59:34;100678.41;;;5.19;68.42
76448;BME280;65284;51.040;13.722;2023-11-18T13:02:00;100680.09;;;5.20;68.73
76448;BME280;65284;51.040;13.722;2023-11-18T13:04:30;100682.63;;;5.21;68.39
76448;BME280;65284;51.040;13.722;2023-11-18T13:06:57;100683.47;;;5.22;68.63
76448;BME280;65284;51.040;13.722;2023-11-18T13:09:26;100676.09;;;5.27;68.39
76448;BME280;65284;51.040;13.722;2023-11-18T13:11:56;100685.38;;;5.20;69.00
76448;BME280;65284;51.040;13.722;2023-11-18T13:14:25;100686.31;;;5.19;68.50
76448;BME280;65284;51.040;13.722;2023-11-18T13:16:53;100683.06;;;5.15;68.53
76448;BME280;65284;51.040;13.722;2023-11-18T13:19:27;100682.41;;;5.24;67.55
76448;BME280;65284;51.040;13.722;2023-11-18T13:21:58;100691.28;;;5.23;67.90